createdAt,value
2022-12-31T00:00:00.624Z,95
2022-12-31T00:05:00.642Z,94
2022-12-31T00:10:00.612Z,95
2022-12-31T00:15:00.649Z,95
2022-12-31T00:20:00.631Z,94
2022-12-31T00:25:00.753Z,94
2022-12-31T00:30:04.717Z,94
2022-12-31T00:35:00.650Z,94
2022-12-31T00:40:00.699Z,95
2022-12-31T00:45:00.627Z,95
2022-12-31T00:50:00.588Z,94
2022-12-31T00:55:00.584Z,94
2022-12-31T01:00:00.793Z,95
2022-12-31T01:05:00.640Z,95
2022-12-31T01:10:00.690Z,95
2022-12-31T01:15:00.621Z,95
2022-12-31T01:20:00.656Z,95
2022-12-31T01:25:00.610Z,96
2022-12-31T01:30:00.676Z,95
2022-12-31T01:35:00.644Z,95
2022-12-31T01:40:00.675Z,95
2022-12-31T01:45:00.650Z,95
2022-12-31T01:50:00.671Z,95
2022-12-31T01:55:00.634Z,94
2022-12-31T02:00:00.672Z,94
2022-12-31T02:05:00.677Z,93
2022-12-31T02:10:00.651Z,94
2022-12-31T02:15:00.648Z,94
2022-12-31T02:20:00.664Z,94
2022-12-31T02:25:00.638Z,94
2022-12-31T02:30:00.704Z,94
2022-12-31T02:35:00.628Z,94
2022-12-31T02:40:00.687Z,95
2022-12-31T02:45:00.629Z,95
2022-12-31T02:50:03.747Z,95
2022-12-31T02:55:00.661Z,95
2022-12-31T03:00:00.684Z,95
2022-12-31T03:05:00.780Z,95
2022-12-31T03:10:00.650Z,95
2022-12-31T03:15:00.733Z,95
2022-12-31T03:20:00.660Z,96
2022-12-31T03:25:00.605Z,96
2022-12-31T03:30:00.691Z,96
2022-12-31T03:35:00.641Z,96
2022-12-31T03:40:00.595Z,96
2022-12-31T03:45:00.649Z,96
2022-12-31T03:50:00.640Z,96
2022-12-31T03:55:00.625Z,96
2022-12-31T04:00:00.645Z,95
2022-12-31T04:05:00.692Z,95
2022-12-31T04:10:00.695Z,95
2022-12-31T04:15:00.749Z,96
2022-12-31T04:20:00.638Z,96
2022-12-31T04:25:00.644Z,96
2022-12-31T04:30:00.677Z,96
2022-12-31T04:35:00.688Z,96
2022-12-31T04:40:05.776Z,95
2022-12-31T04:45:00.666Z,95
2022-12-31T04:50:00.650Z,95
2022-12-31T04:55:00.749Z,95
2022-12-31T05:00:00.700Z,96
2022-12-31T05:05:00.651Z,96
2022-12-31T05:10:00.681Z,96
2022-12-31T05:15:00.671Z,96
2022-12-31T05:20:00.651Z,96
2022-12-31T05:25:00.692Z,96
2022-12-31T05:30:00.826Z,97
2022-12-31T05:35:00.699Z,97
2022-12-31T05:40:00.713Z,97
2022-12-31T05:45:00.658Z,97
2022-12-31T05:50:00.654Z,97
2022-12-31T05:55:00.690Z,97
2022-12-31T06:00:00.671Z,97
2022-12-31T06:05:00.589Z,97
2022-12-31T06:10:00.709Z,97
2022-12-31T06:15:00.633Z,97
2022-12-31T06:20:01.279Z,96
2022-12-31T06:25:00.620Z,96
2022-12-31T06:30:00.681Z,96
2022-12-31T06:35:00.631Z,96
2022-12-31T06:40:00.616Z,96
2022-12-31T06:45:00.636Z,96
2022-12-31T06:50:00.594Z,96
2022-12-31T06:55:00.609Z,96
2022-12-31T07:00:00.795Z,96
2022-12-31T07:05:00.636Z,96
2022-12-31T07:10:00.683Z,96
2022-12-31T07:15:00.705Z,96
2022-12-31T07:20:00.686Z,95
2022-12-31T07:25:00.679Z,95
2022-12-31T07:30:00.692Z,95
2022-12-31T07:35:00.693Z,95
2022-12-31T07:40:00.741Z,95
2022-12-31T07:45:01.015Z,95
2022-12-31T07:50:00.727Z,95
2022-12-31T07:55:00.674Z,95
2022-12-31T08:00:00.706Z,95
2022-12-31T08:05:00.659Z,95
2022-12-31T08:10:00.711Z,95
2022-12-31T08:15:00.602Z,95
2022-12-31T08:20:00.654Z,95
2022-12-31T08:25:00.702Z,95
2022-12-31T08:30:00.729Z,95
2022-12-31T08:35:00.629Z,95
2022-12-31T08:40:00.910Z,95
2022-12-31T08:45:00.618Z,94
2022-12-31T08:50:00.676Z,94
2022-12-31T08:55:00.700Z,94
2022-12-31T09:00:00.713Z,94
2022-12-31T09:05:00.710Z,95
2022-12-31T09:10:00.678Z,95
2022-12-31T09:15:00.602Z,95
2022-12-31T09:20:00.663Z,94
2022-12-31T09:25:00.701Z,94
2022-12-31T09:30:00.621Z,94
2022-12-31T09:35:00.612Z,94
2022-12-31T09:40:00.662Z,94
2022-12-31T09:45:00.604Z,93
2022-12-31T09:50:00.633Z,92
2022-12-31T09:55:00.612Z,92
2022-12-31T10:00:00.797Z,92
2022-12-31T10:05:00.815Z,92
2022-12-31T10:10:00.787Z,92
2022-12-31T10:15:00.758Z,91
2022-12-31T10:20:00.730Z,92
2022-12-31T10:25:00.681Z,91
2022-12-31T10:30:00.719Z,91
2022-12-31T10:35:00.605Z,90
2022-12-31T10:40:00.866Z,90
2022-12-31T10:45:00.599Z,91
2022-12-31T10:50:00.655Z,91
2022-12-31T10:55:00.662Z,91
2022-12-31T11:00:00.843Z,91
2022-12-31T11:05:00.630Z,90
2022-12-31T11:10:00.619Z,90
2022-12-31T11:15:00.598Z,89
2022-12-31T11:20:00.670Z,88
2022-12-31T11:25:00.632Z,88
2022-12-31T11:30:00.651Z,90
2022-12-31T11:35:00.591Z,91
2022-12-31T11:40:00.665Z,91
2022-12-31T11:45:00.675Z,92
2022-12-31T11:50:00.825Z,92
2022-12-31T11:55:00.597Z,93
2022-12-31T12:00:00.587Z,92
2022-12-31T12:05:03.811Z,91
2022-12-31T12:10:00.635Z,89
2022-12-31T12:15:00.609Z,88
2022-12-31T12:20:00.668Z,88
2022-12-31T12:25:00.603Z,90
2022-12-31T12:30:00.610Z,90
2022-12-31T12:35:00.908Z,89
2022-12-31T12:40:00.616Z,89
2022-12-31T12:45:00.648Z,90
2022-12-31T12:50:00.683Z,90
2022-12-31T12:55:00.643Z,89
2022-12-31T13:00:00.630Z,89
2022-12-31T13:05:00.630Z,88
2022-12-31T13:10:00.745Z,88
2022-12-31T13:15:00.774Z,88
2022-12-31T13:20:00.633Z,88
2022-12-31T13:25:00.820Z,88
2022-12-31T13:30:00.637Z,87
2022-12-31T13:35:00.613Z,87
2022-12-31T13:40:00.647Z,87
2022-12-31T13:45:00.672Z,88
2022-12-31T13:50:00.643Z,89
2022-12-31T13:55:00.691Z,88
2022-12-31T14:00:00.747Z,89
2022-12-31T14:05:00.633Z,90
2022-12-31T14:10:00.664Z,90
2022-12-31T14:15:00.694Z,90
2022-12-31T14:20:00.636Z,89
2022-12-31T14:25:00.614Z,89
2022-12-31T14:30:00.717Z,88
2022-12-31T14:35:00.811Z,88
2022-12-31T14:40:00.609Z,87
2022-12-31T14:45:00.694Z,86
2022-12-31T14:50:00.655Z,87
2022-12-31T14:55:00.631Z,86
2022-12-31T15:00:00.711Z,87
2022-12-31T15:05:00.618Z,88
2022-12-31T15:10:00.725Z,87
2022-12-31T15:15:00.703Z,86
2022-12-31T15:20:00.747Z,85
2022-12-31T15:25:00.705Z,85
2022-12-31T15:30:00.691Z,84
2022-12-31T15:35:00.620Z,84
2022-12-31T15:40:00.615Z,83
2022-12-31T15:45:00.660Z,83
2022-12-31T15:50:00.769Z,81
2022-12-31T15:55:00.780Z,80
2022-12-31T16:00:00.720Z,79
2022-12-31T16:05:00.610Z,78
2022-12-31T16:10:00.649Z,77
2022-12-31T16:15:00.662Z,78
2022-12-31T16:20:00.628Z,77
2022-12-31T16:25:34.333Z,77
2022-12-31T16:30:00.930Z,76
2022-12-31T16:35:00.632Z,76
2022-12-31T16:40:00.619Z,75
2022-12-31T16:45:00.614Z,75
2022-12-31T16:50:00.652Z,76
2022-12-31T16:55:00.643Z,76
2022-12-31T17:00:00.646Z,75
2022-12-31T17:05:00.628Z,75
2022-12-31T17:10:00.692Z,75
2022-12-31T17:15:00.622Z,75
2022-12-31T17:20:00.661Z,74
2022-12-31T17:25:00.796Z,75
2022-12-31T17:30:00.686Z,74
2022-12-31T17:35:00.763Z,75
2022-12-31T17:40:17.401Z,75
2022-12-31T17:45:00.707Z,75
2022-12-31T17:50:00.632Z,74
2022-12-31T17:55:00.653Z,74
2022-12-31T18:00:00.741Z,75
2022-12-31T18:05:00.683Z,75
2022-12-31T18:10:00.604Z,74
2022-12-31T18:15:00.664Z,74
2022-12-31T18:20:05.354Z,73
2022-12-31T18:25:00.624Z,73
2022-12-31T18:30:04.866Z,72
2022-12-31T18:35:00.632Z,72
2022-12-31T18:40:00.605Z,71
2022-12-31T18:45:00.603Z,71
2022-12-31T18:50:00.684Z,70
2022-12-31T18:55:00.662Z,69
2022-12-31T19:00:00.739Z,68
2022-12-31T19:05:00.818Z,68
2022-12-31T19:10:00.672Z,67
2022-12-31T19:15:00.713Z,67
2022-12-31T19:20:00.753Z,66
2022-12-31T19:25:00.604Z,67
2022-12-31T19:30:00.715Z,66
2022-12-31T19:35:00.623Z,66
2022-12-31T19:40:00.619Z,65
2022-12-31T19:45:00.688Z,65
2022-12-31T19:50:00.702Z,65
2022-12-31T19:55:00.751Z,64
2022-12-31T20:00:00.648Z,64
2022-12-31T20:05:00.767Z,64
2022-12-31T20:10:00.666Z,64
2022-12-31T20:15:00.667Z,64
2022-12-31T20:20:00.690Z,64
2022-12-31T20:25:00.778Z,64
2022-12-31T20:30:00.722Z,65
2022-12-31T20:35:00.724Z,65
2022-12-31T20:40:00.667Z,64
2022-12-31T20:45:00.689Z,64
2022-12-31T20:50:11.482Z,63
2022-12-31T20:55:00.755Z,64
2022-12-31T21:00:02.773Z,63
2022-12-31T21:05:00.811Z,63
2022-12-31T21:10:00.609Z,63
2022-12-31T21:15:00.755Z,63
2022-12-31T21:20:00.612Z,64
2022-12-31T21:25:00.689Z,63
2022-12-31T21:30:19.799Z,63
2022-12-31T21:35:40.356Z,62
2022-12-31T21:40:00.765Z,63
2022-12-31T21:45:00.624Z,62
2022-12-31T21:50:00.769Z,62
2022-12-31T21:55:00.779Z,64
2022-12-31T22:00:32.028Z,65
2022-12-31T22:05:02.673Z,66
2022-12-31T22:10:00.652Z,67
2022-12-31T22:15:15.036Z,67
2022-12-31T22:20:25.740Z,67
2022-12-31T22:25:00.710Z,64
2022-12-31T22:30:00.615Z,63
2022-12-31T22:35:00.712Z,66
2022-12-31T22:40:00.667Z,66
2022-12-31T22:45:00.630Z,65
2022-12-31T22:50:00.594Z,64
2022-12-31T22:55:00.593Z,64
2022-12-31T23:00:00.756Z,65
2022-12-31T23:05:15.376Z,66
2022-12-31T23:10:00.738Z,65
2022-12-31T23:15:00.599Z,66
2022-12-31T23:20:00.668Z,67
2022-12-31T23:25:00.702Z,66
2022-12-31T23:30:00.622Z,66
2022-12-31T23:35:06.153Z,65
2022-12-31T23:40:00.628Z,64
2022-12-31T23:45:00.587Z,65
2022-12-31T23:50:00.673Z,64
2022-12-31T23:55:00.751Z,62
